Impacts METAR Board
IDs:

KSFO - San Francisco Intl, CA, US

Updated at: 0100 UTC 18 Aug 2018
Potential Impact None Slight Moderate High
Time 17/13Z 17/14Z 17/15Z 17/16Z 17/17Z 17/18Z 17/19Z 17/20Z 17/21Z 17/22Z 17/23Z 18/00Z 18/01Z
Temp57 58 59 60 63 65 65 69 70 71 67 65 64
Dewpt53 53 54 54 55 56 56 57 54 54 53 53 53
Altim30.06 30.07 30.07 30.08 30.08 30.08 30.07 30.06 30.04 30.03 30.02 30.01 29.99
VIS10 10 9 9 10 8 9 10 10 10 10 10 10
CIG10 10 10 10 -- -- -- -- -- -- -- -- --
CoverBKNBKNBKNBKNSCTFEWFEWFEWFEWFEWFEWFEWFEW
FltCatMVFRMVFRMVFRMVFRVFRVFRVFRVFRVFRVFRVFRVFRVFR
WX--------------------------
WDir280290003201030320310310290290300
WSpd7 6 0 0 7 8 7 11 14 16 21 21 17
WGst-- -- -- -- -- -- -- -- -- -- -- -- --
Raw hourly METARs
KSFO 171256Z 28007KT 10SM FEW006 BKN010 14/12 A3006 RMK AO2 SLP180 T01390117 $
KSFO 171356Z 29006KT 10SM FEW006 BKN010 14/12 A3007 RMK AO2 SLP182 T01440117 $
KSFO 171456Z 00000KT 9SM FEW006 BKN010 15/12 A3007 RMK AO2 SLP184 T01500122 53004 $
KSFO 171556Z 00000KT 9SM FEW006 BKN010 16/12 A3008 RMK AO2 SLP186 T01560122 $
KSFO 171656Z 32007KT 10SM FEW006 SCT010 17/13 A3008 RMK AO2 SLP184 T01720128 $
KSFO 171756Z 01008KT 8SM FEW006 18/13 A3008 RMK AO2 SLP184 T01830133 10183 20128 56002 $
KSFO 171856Z 03007KT 9SM FEW006 18/13 A3007 RMK AO2 SLP181 T01830133 $
KSFO 171956Z 32011KT 10SM FEW006 21/14 A3006 RMK AO2 SLP177 T02060139 $
KSFO 172056Z 31014KT 10SM FEW006 21/12 A3004 RMK AO2 WSHFT 1955 SLP173 T02110122 58011 $
KSFO 172156Z 31016KT 10SM FEW008 22/12 A3003 RMK AO2 SLP169 T02170122 $
KSFO 172256Z 29021KT 10SM FEW009 19/12 A3002 RMK AO2 PK WND 29026/2247 SLP164 T01940117 $
KSFO 172356Z 29021KT 10SM FEW009 18/12 A3001 RMK AO2 PK WND 30026/2325 SLP160 T01830117 10217 20183 56013 $
KSFO 180056Z 30017KT 10SM FEW007 18/12 A2999 RMK AO2 PK WND 29027/0000 SLP157 T01780117 $



Page loaded:  01:26 UTC  |   06:26 PM Pacific  |   07:26 PM Mountain  |   08:26 PM Central  |   09:26 PM Eastern

 

ADVISORIES

FORECASTS

FORECASTS

OBSERVATIONS

USER TOOLS

ABOUT US